createdAt,value
2022-08-17T03:34:30.083Z,87.15
2022-08-17T03:39:31.981Z,87.15
2022-08-17T03:44:34.183Z,85.08
2022-08-17T03:49:35.867Z,85.08
2022-08-17T03:54:37.675Z,86.1
2022-08-17T03:59:39.383Z,86.1
2022-08-17T04:04:42.680Z,86.84
2022-08-17T04:09:44.570Z,86.84
2022-08-17T04:19:52.481Z,86.05
2022-08-17T04:24:59.029Z,86.17
2022-08-17T04:30:00.932Z,84.93
2022-08-17T04:35:02.878Z,84.93
2022-08-17T04:40:05.114Z,84.82
2022-08-17T04:45:07.356Z,84.82
2022-08-17T04:50:09.854Z,85.62
2022-08-17T04:55:11.605Z,85.62
2022-08-17T05:00:14.025Z,84.27
2022-08-17T05:05:18.122Z,84.27
2022-08-17T05:10:20.187Z,83.79
2022-08-17T05:15:22.896Z,83.79
2022-08-17T05:20:25.586Z,81.37
2022-08-17T05:25:32.782Z,81.37
2022-08-17T05:30:39.990Z,80.7
2022-08-17T05:35:43.075Z,80.7
2022-08-17T05:40:45.490Z,77
2022-08-17T05:51:01.073Z,77.7
2022-08-17T06:06:31.440Z,68.42
2022-08-17T06:11:37.732Z,68.42
2022-08-17T06:16:41.162Z,66.47
2022-08-17T06:21:44.716Z,66.47
2022-08-17T06:26:47.845Z,66.21
2022-08-17T06:31:49.436Z,66.21
2022-08-17T06:36:56.125Z,66.85
2022-08-17T06:47:09.846Z,66.47
2022-08-17T06:57:23.415Z,64.94
2022-08-17T07:07:33.677Z,63.7
2022-08-17T07:12:38.542Z,63.87
2022-08-17T07:27:59.511Z,61.16
2022-08-17T07:33:02.718Z,55.76
2022-08-17T07:43:23.737Z,46.1
2022-08-17T07:48:25.936Z,46.1
2022-08-17T07:53:28.180Z,41.69
2022-08-17T07:58:29.896Z,40.7
2022-08-17T08:03:32.420Z,40.7
2022-08-17T08:08:37.460Z,45.03
2022-08-17T08:13:40.169Z,45.03
2022-08-17T08:23:52.129Z,38.63
2022-08-17T08:34:05.982Z,37.28
2022-08-17T08:39:10.280Z,38.32
2022-08-17T08:54:37.944Z,38.4
2022-08-17T08:59:45.077Z,36.49
2022-08-17T09:10:00.827Z,35.78
2022-08-17T09:15:12.926Z,36.42
2022-08-17T09:25:24.719Z,34.72
2022-08-17T09:30:27.739Z,34.72
2022-08-17T09:35:37.575Z,33.35
2022-08-17T09:40:42.808Z,33.35
2022-08-17T09:45:48.092Z,33.54
2022-08-17T10:06:21.323Z,29.92
2022-08-17T10:16:37.029Z,31.39
2022-08-17T10:21:41.289Z,31.04
2022-08-17T10:31:53.554Z,31.62
2022-08-17T10:36:58.985Z,31.62
2022-08-17T10:42:04.327Z,31.7
2022-08-17T10:47:07.254Z,31.7
2022-08-17T11:02:31.013Z,29.78
2022-08-17T11:07:38.890Z,29.78
2022-08-17T11:28:15.122Z,27.84
2022-08-17T11:38:31.653Z,29.44
2022-08-17T11:59:02.461Z,30.46
2022-08-17T12:09:13.150Z,29.64
2022-08-17T12:14:26.968Z,33.61
2022-08-17T12:19:27.789Z,33.61
2022-08-17T12:29:39.416Z,28.62
2022-08-17T12:34:42.410Z,31.25
2022-08-17T12:39:49.450Z,31.25
2022-08-17T12:44:51.699Z,26.4
2022-08-17T12:49:54.254Z,26.4
2022-08-17T12:54:57.734Z,25.29
2022-08-17T13:00:01.134Z,25.29
2022-08-17T13:05:04.415Z,24.22
2022-08-17T13:10:06.309Z,24.22
2022-08-17T13:20:14.409Z,23.98
2022-08-17T13:25:16.310Z,23.98
2022-08-17T13:30:20.486Z,23.76
2022-08-17T13:35:34.513Z,23.76
2022-08-17T13:40:39.225Z,23.85
2022-08-17T13:56:03.326Z,23.87
2022-08-17T14:06:11.187Z,24.08
2022-08-17T14:11:19.998Z,24.33
2022-08-17T14:16:21.848Z,24.33
2022-08-17T14:21:23.532Z,23.1
2022-08-17T14:26:25.298Z,21.86
2022-08-17T14:31:27.130Z,21.86
2022-08-17T14:36:28.820Z,23.64
2022-08-17T14:41:30.741Z,23.64
2022-08-17T14:46:32.691Z,19.67
2022-08-17T14:51:34.482Z,19.67
2022-08-17T14:56:45.585Z,21.63
2022-08-17T15:01:51.836Z,21.63
2022-08-17T15:06:53.911Z,19.41
2022-08-17T15:11:56.024Z,19.41
2022-08-17T15:16:57.877Z,19.06
2022-08-17T15:21:59.619Z,19.06
2022-08-17T15:27:01.442Z,21.34
2022-08-17T15:32:03.951Z,21.34
2022-08-17T15:37:05.908Z,20.62
2022-08-17T15:42:08.457Z,22.13
2022-08-17T15:47:12.832Z,22.13
2022-08-17T15:52:17.136Z,19.03
2022-08-17T15:57:22.452Z,19.03
2022-08-17T16:07:32.531Z,24.1
2022-08-17T16:12:36.561Z,24.55
2022-08-17T16:17:41.136Z,24.55
2022-08-17T16:22:44.347Z,24.51
2022-08-17T16:27:48.496Z,24.51
2022-08-17T16:32:53.570Z,24.96
2022-08-17T16:37:57.717Z,24.96
2022-08-17T16:42:59.972Z,24.6
2022-08-17T16:48:01.786Z,25.59
2022-08-17T16:53:04.415Z,25.59
2022-08-17T16:58:06.377Z,25.48
2022-08-17T17:08:19.872Z,26.5
2022-08-17T17:13:25.193Z,26.5
2022-08-17T17:18:31.559Z,26.83
2022-08-17T17:23:39.091Z,26.83
2022-08-17T17:28:43.154Z,27.46
2022-08-17T17:33:46.093Z,27.46
2022-08-17T17:38:49.098Z,29.49
2022-08-17T17:48:56.672Z,32.05
2022-08-17T17:54:02.430Z,32.02
2022-08-17T18:04:21.460Z,33.62
2022-08-17T18:19:42.417Z,38
2022-08-17T18:24:45.693Z,38.1
2022-08-17T18:29:48.750Z,38.1
2022-08-17T18:34:51.805Z,38.6
2022-08-17T18:39:57.274Z,38.6
2022-08-17T18:44:59.590Z,38.89
2022-08-17T18:55:07.930Z,40.57
2022-08-17T19:00:11.815Z,42.02
2022-08-17T19:10:25.032Z,44.35
2022-08-17T19:15:29.550Z,44.35
2022-08-17T19:20:34.591Z,42.43
2022-08-17T19:25:40.224Z,42.43
2022-08-17T19:30:43.963Z,42.53
2022-08-17T19:35:49.734Z,42.53
2022-08-17T19:40:59.904Z,49.32
2022-08-17T19:46:06.799Z,49.32
2022-08-17T19:51:13.048Z,44.9
2022-08-17T20:01:34.637Z,49.05
2022-08-17T20:06:39.384Z,50.85
2022-08-17T20:11:43.520Z,50.85
2022-08-17T20:16:45.954Z,47.45
2022-08-17T20:21:51.693Z,47.45
2022-08-17T20:26:59.709Z,50.16
2022-08-17T20:32:05.867Z,50.16
2022-08-17T20:37:09.145Z,45.9
2022-08-17T20:47:18.196Z,50.97
2022-08-17T20:57:44.158Z,50.97
2022-08-17T21:02:47.024Z,50.97
2022-08-17T21:07:52.690Z,50.97
2022-08-17T21:12:58.676Z,50.97
2022-08-17T21:18:05.706Z,50.97
2022-08-17T21:28:20.361Z,50.97
2022-08-17T21:33:24.828Z,50.97
